Tributaries of Morava river

Břeclav-Ladná (Thaya)

Date and time (UTC) H (cm) Q (m³/s)
20. 7. 2024 04:20 15 12.7
20. 7. 2024 04:00 15 13
20. 7. 2024 03:00 16 13
20. 7. 2024 02:00 15 13
20. 7. 2024 01:00 14 12
20. 7. 2024 00:00 15 13
19. 7. 2024 23:00 19 15
19. 7. 2024 22:00 21 16
19. 7. 2024 21:00 21 16
19. 7. 2024 20:00 21 16
19. 7. 2024 19:00 21 16
19. 7. 2024 18:00 20 15
19. 7. 2024 17:00 20 15
19. 7. 2024 16:00 20 15

H - water level, Q - discharge

Dluhonice (Bečva)

Date and time (UTC) H (cm) Q (m³/s)
20. 7. 2024 04:20 128 8.1
20. 7. 2024 04:00 127 8
20. 7. 2024 03:00 128 8
20. 7. 2024 02:00 129 9
20. 7. 2024 01:00 131 9
20. 7. 2024 00:00 132 10
19. 7. 2024 23:00 133 10
19. 7. 2024 22:00 135 11
19. 7. 2024 21:00 131 9
19. 7. 2024 20:00 121 5
19. 7. 2024 19:00 121 5
19. 7. 2024 18:00 121 5
19. 7. 2024 17:00 121 5
19. 7. 2024 16:00 121 5

H - water level, Q - discharge
Source data
Labe Basin Vltava Basin Povodí Moravy ČHMÚ
Po vodě ekologicky, levně a v pohodě
backgroung on backgroung off